Time;durP1;ratioP1;P1;durP2;ratioP2;P2;SDS_P1;SDS_P2;PMS_P1;PMS_P2;Temp;Humidity;BMP_temperature;BMP_pressure;BME280_temperature;BME280_humidity;BME280_pressure;Samples;Min_cycle;Max_cycle;Signal;HPM_P1;HPM_P2
2023/01/20 00:02:09;;;;;;;;;17.00;14.25;;;;;4.03;77.19;100575.16;5075071;28;45691;-79
2023/01/20 00:04:34;;;;;;;;;14.00;11.00;;;;;4.05;76.92;100577.69;5075378;28;45611;-79
2023/01/20 00:07:00;;;;;;;;;19.75;13.25;;;;;4.04;76.77;100578.59;5075574;28;45752;-77
2023/01/20 00:12:47;;;;;;;;;15.50;13.00;;;;;3.91;76.73;100596.44;5074971;28;45792;-80
2023/01/20 00:15:12;;;;;;;;;13.25;9.00;;;;;3.92;76.64;100598.13;5075437;28;45509;-79
2023/01/20 00:17:38;;;;;;;;;17.50;16.25;;;;;3.82;76.54;100581.31;5074772;28;46339;-79
2023/01/20 00:20:04;;;;;;;;;11.00;11.00;;;;;3.82;76.63;100590.81;5074529;28;45688;-80
2023/01/20 00:26:40;;;;;;;;;22.25;13.00;;;;;3.83;76.86;100619.25;5074720;28;45550;-80
2023/01/20 00:29:07;;;;;;;;;13.00;10.25;;;;;3.82;76.59;100620.16;5075837;28;46619;-79
2023/01/20 00:31:33;;;;;;;;;18.50;11.00;;;;;3.71;76.97;100597.31;5078275;28;45587;-79
2023/01/20 00:33:59;;;;;;;;;15.75;13.25;;;;;3.85;76.46;100626.94;5079586;28;45571;-81
2023/01/20 00:36:26;;;;;;;;;10.00;8.00;;;;;3.68;76.40;100600.00;5076398;28;45595;-81
2023/01/20 00:42:13;;;;;;;;;14.00;10.50;;;;;3.81;76.44;100641.78;5074872;28;46276;-80
2023/01/20 00:44:38;;;;;;;;;14.00;11.00;;;;;3.82;76.88;100635.72;5075215;28;45597;-81
2023/01/20 00:47:04;;;;;;;;;11.50;10.00;;;;;3.84;76.85;100640.81;5075598;28;45903;-79
2023/01/20 00:49:29;;;;;;;;;16.25;14.00;;;;;3.85;76.70;100645.09;5074712;28;46784;-82
2023/01/20 00:51:54;;;;;;;;;13.75;13.00;;;;;3.87;76.70;100643.28;5074456;28;46686;-79
2023/01/20 00:57:42;;;;;;;;;13.50;11.00;;;;;3.81;76.64;100639.19;5073081;28;45574;-79
2023/01/20 01:00:08;;;;;;;;;16.75;13.00;;;;;3.85;76.70;100637.31;5074573;28;46258;-80
2023/01/20 01:02:37;;;;;;;;;14.50;13.75;;;;;3.79;76.78;100625.47;5075268;28;46125;-78
2023/01/20 01:05:02;;;;;;;;;19.75;15.00;;;;;3.80;76.53;100632.34;5074777;28;45936;-80
2023/01/20 01:07:28;;;;;;;;;20.00;16.25;;;;;3.87;76.73;100643.28;5074844;28;46073;-82
2023/01/20 01:13:14;;;;;;;;;14.00;12.00;;;;;3.89;76.37;100649.25;5074606;28;46201;-79
2023/01/20 01:15:47;;;;;;;;;19.75;14.00;;;;;3.86;76.47;100644.19;5076546;28;45792;-79
2023/01/20 01:18:12;;;;;;;;;22.25;13.50;;;;;3.89;76.15;100651.84;5074372;28;45513;-79
2023/01/20 01:20:38;;;;;;;;;13.50;11.50;;;;;3.80;76.51;100640.94;5075418;28;45546;-82
2023/01/20 01:23:03;;;;;;;;;16.75;12.50;;;;;3.86;76.69;100657.97;5078221;28;45685;-79
2023/01/20 01:28:50;;;;;;;;;13.75;12.50;;;;;3.84;76.55;100680.50;5075496;28;45769;-79
2023/01/20 01:31:17;;;;;;;;;18.00;14.00;;;;;3.80;76.58;100674.63;5074491;28;46183;-80
2023/01/20 01:33:44;;;;;;;;;21.00;15.50;;;;;3.84;76.31;100693.47;5073458;28;47012;-81
2023/01/20 01:36:16;;;;;;;;;14.00;12.50;;;;;3.87;76.19;100702.88;5073831;27;45952;-80
2023/01/20 01:38:42;;;;;;;;;18.25;12.50;;;;;3.81;76.30;100698.78;5074064;28;45483;-81
2023/01/20 01:41:11;;;;;;;;;17.00;15.00;;;;;3.70;76.54;100685.44;5074003;28;46331;-79
2023/01/20 01:43:38;;;;;;;;;16.75;13.75;;;;;3.76;76.54;100688.63;5073769;28;46283;-78
2023/01/20 01:46:04;;;;;;;;;20.00;17.75;;;;;3.82;76.54;100704.81;5073963;28;45672;-78
2023/01/20 01:48:35;;;;;;;;;23.00;22.50;;;;;3.79;76.75;100703.19;5073578;28;45706;-81
2023/01/20 01:51:08;;;;;;;;;22.00;19.00;;;;;3.81;76.55;100709.16;5073617;28;45827;-81
2023/01/20 01:53:44;;;;;;;;;23.75;16.50;;;;;3.78;76.48;100702.34;5073535;28;46348;-82
2023/01/20 01:56:12;;;;;;;;;27.75;22.50;;;;;3.83;76.43;100712.53;5073649;28;45884;-79
2023/01/20 01:58:44;;;;;;;;;23.00;16.75;;;;;3.72;76.51;100694.00;5074397;28;45691;-79
2023/01/20 02:01:10;;;;;;;;;28.75;24.25;;;;;3.81;76.82;100714.34;5073461;28;46779;-77
2023/01/20 02:03:59;;;;;;;;;28.75;19.75;;;;;3.79;76.72;100722.16;5072254;28;47603;-79
2023/01/20 02:06:30;;;;;;;;;23.50;19.50;;;;;3.75;76.89;100723.22;5073667;28;45833;-77
2023/01/20 02:08:56;;;;;;;;;26.25;20.75;;;;;3.67;77.28;100720.06;5074931;28;45644;-79
2023/01/20 02:11:22;;;;;;;;;22.00;17.50;;;;;3.72;77.34;100730.28;5077027;28;46684;-80
2023/01/20 02:13:48;;;;;;;;;22.75;18.50;;;;;3.71;77.42;100732.03;5076794;28;45918;-80
2023/01/20 02:16:34;;;;;;;;;19.50;18.75;;;;;3.71;77.12;100736.34;5076527;28;45621;-78
2023/01/20 02:19:20;;;;;;;;;22.00;17.25;;;;;3.65;77.20;100734.84;5077486;28;45554;-79
2023/01/20 02:21:59;;;;;;;;;22.75;17.25;;;;;3.57;77.16;100734.31;5076993;28;45616;-78
2023/01/20 02:24:40;;;;;;;;;24.75;19.25;;;;;3.35;77.58;100713.59;5076389;28;46201;-79
2023/01/20 02:27:18;;;;;;;;;25.00;19.25;;;;;3.44;77.67;100734.88;5077057;28;45695;-77
2023/01/20 02:30:02;;;;;;;;;22.00;19.50;;;;;3.39;77.55;100737.66;5077034;28;45743;-78
2023/01/20 02:32:27;;;;;;;;;24.00;18.25;;;;;3.38;77.85;100741.13;5076888;28;46394;-82
2023/01/20 02:35:10;;;;;;;;;19.00;15.67;;;;;3.32;77.52;100747.41;5078798;28;46663;-80
2023/01/20 02:37:41;;;;;;;;;17.75;15.00;;;;;3.25;77.91;100758.88;5079494;28;45416;-79
2023/01/20 02:40:07;;;;;;;;;19.75;13.50;;;;;3.19;77.93;100761.69;5077894;28;45770;-80
2023/01/20 02:42:41;;;;;;;;;17.75;16.50;;;;;3.13;78.07;100749.00;5076962;28;46463;-80
2023/01/20 02:45:21;;;;;;;;;25.75;20.00;;;;;3.14;78.09;100758.44;5077200;28;46082;-82
2023/01/20 02:47:53;;;;;;;;;22.50;18.50;;;;;3.14;77.88;100766.22;5076687;28;46036;-82
2023/01/20 02:50:26;;;;;;;;;16.75;15.75;;;;;3.16;78.16;100769.59;5074970;27;45538;-81
2023/01/20 02:52:55;;;;;;;;;21.50;20.25;;;;;3.16;78.20;100763.56;5076963;28;46409;-83
2023/01/20 02:55:32;;;;;;;;;21.75;17.00;;;;;3.17;78.09;100760.09;5077189;28;46597;-82
2023/01/20 02:58:04;;;;;;;;;20.25;16.75;;;;;3.17;77.94;100768.72;5077256;28;45642;-77
2023/01/20 03:00:41;;;;;;;;;16.00;13.00;;;;;3.16;78.43;100772.19;5076954;28;45990;-80
2023/01/20 03:03:11;;;;;;;;;21.00;16.25;;;;;3.02;78.24;100753.75;5077311;28;46480;-81
2023/01/20 03:05:44;;;;;;;;;19.00;14.25;;;;;3.13;78.33;100780.06;5076735;28;46187;-80
2023/01/20 03:08:14;;;;;;;;;11.00;8.50;;;;;3.13;78.08;100774.06;5076025;28;45566;-81
2023/01/20 03:10:45;;;;;;;;;21.75;15.00;;;;;3.08;78.55;100774.22;5075072;28;45813;-79
2023/01/20 03:13:19;;;;;;;;;20.50;19.25;;;;;3.10;78.38;100787.09;5057730;28;46859;-82
2023/01/20 03:15:59;;;;;;;;;22.50;18.00;;;;;3.08;78.60;100789.72;5057274;28;46495;-82
2023/01/20 03:18:28;;;;;;;;;21.25;16.00;;;;;3.03;78.41;100807.19;5057389;28;45639;-81
2023/01/20 03:20:53;;;;;;;;;20.00;16.00;;;;;2.97;78.34;100805.66;5074578;28;45790;-78
2023/01/20 03:23:19;;;;;;;;;19.75;16.00;;;;;2.82;78.74;100790.69;5074869;28;46625;-81
2023/01/20 03:25:47;;;;;;;;;16.25;13.25;;;;;2.90;78.70;100803.38;5076724;28;46097;-81
2023/01/20 03:28:13;;;;;;;;;19.75;17.00;;;;;2.77;78.63;100781.41;5076333;28;45841;-81
2023/01/20 03:30:38;;;;;;;;;20.25;16.25;;;;;2.95;78.73;100816.97;5058399;28;46039;-81
2023/01/20 03:33:06;;;;;;;;;17.75;15.25;;;;;2.96;78.96;100823.84;5057650;28;46336;-79
2023/01/20 03:35:34;;;;;;;;;19.00;15.25;;;;;2.93;78.62;100819.63;5076966;28;46148;-80
2023/01/20 03:38:00;;;;;;;;;18.00;14.75;;;;;2.83;78.53;100810.50;5076710;28;45658;-79
2023/01/20 03:44:07;;;;;;;;;13.00;12.25;;;;;2.81;78.56;100814.88;5077234;28;45606;-79
2023/01/20 03:46:55;;;;;;;;;4.50;3.75;;;;;2.88;78.85;100820.69;5078451;28;45972;-82
2023/01/20 03:49:41;;;;;;;;;19.00;16.50;;;;;2.87;78.89;100819.00;5076830;28;45660;-84
2023/01/20 03:52:32;;;;;;;;;17.25;11.00;;;;;2.83;78.81;100822.59;5075286;28;45618;-79
2023/01/20 03:55:04;;;;;;;;;20.25;14.25;;;;;2.86;78.77;100830.25;5075211;28;47451;-82
2023/01/20 04:00:53;;;;;;;;;15.00;13.00;;;;;2.85;78.47;100831.16;5075472;28;46068;-78
2023/01/20 04:03:25;;;;;;;;;16.50;14.50;;;;;2.75;78.73;100822.03;5075215;28;45761;-76
2023/01/20 04:05:51;;;;;;;;;14.50;13.50;;;;;2.83;78.84;100835.53;5073385;28;48419;-79
2023/01/20 04:08:19;;;;;;;;;18.50;12.50;;;;;2.89;79.02;100837.91;5074742;28;46745;-77
2023/01/20 04:10:47;;;;;;;;;14.75;10.00;;;;;2.89;78.82;100854.28;5074884;28;45497;-76
2023/01/20 04:13:13;;;;;;;;;7.50;6.00;;;;;2.80;78.88;100830.47;5074676;28;45516;-78
2023/01/20 04:15:43;;;;;;;;;11.75;9.75;;;;;2.86;78.68;100844.00;5075118;28;47504;-80
2023/01/20 04:18:15;;;;;;;;;12.50;10.00;;;;;2.89;78.63;100848.25;5057150;28;46140;-76
2023/01/20 04:20:43;;;;;;;;;8.75;8.75;;;;;2.93;78.82;100860.16;5074675;28;45835;-82
2023/01/20 04:23:15;;;;;;;;;15.00;11.50;;;;;2.96;78.69;100865.25;5075403;28;45654;-79
2023/01/20 04:25:43;;;;;;;;;11.50;8.25;;;;;2.88;78.43;100855.16;5074800;28;46462;-81
2023/01/20 04:28:08;;;;;;;;;20.00;12.00;;;;;2.98;78.50;100863.44;5075362;28;46083;-81
2023/01/20 04:30:35;;;;;;;;;12.50;11.25;;;;;2.92;78.55;100864.50;5075654;28;45635;-79
2023/01/20 04:33:00;;;;;;;;;14.00;7.00;;;;;2.94;78.59;100872.22;5076673;28;45520;-82
2023/01/20 04:35:26;;;;;;;;;13.25;9.75;;;;;2.91;77.91;100864.56;5077595;28;47177;-79
2023/01/20 04:37:52;;;;;;;;;17.25;12.75;;;;;2.86;78.68;100859.53;5076747;28;46816;-79
2023/01/20 04:40:18;;;;;;;;;18.75;14.75;;;;;2.87;78.52;100869.00;5077351;28;45683;-79
2023/01/20 04:46:04;;;;;;;;;6.00;1.50;;;;;2.85;78.33;100869.97;5075240;28;45608;-80
2023/01/20 04:48:30;;;;;;;;;9.50;9.00;;;;;2.88;78.35;100883.63;5056944;28;46472;-83
2023/01/20 04:50:57;;;;;;;;;14.75;12.75;;;;;2.88;78.67;100890.53;5074894;28;45479;-80
2023/01/20 04:53:23;;;;;;;;;6.00;6.00;;;;;2.81;78.18;100882.13;5075127;28;45882;-79
2023/01/20 04:55:48;;;;;;;;;16.25;12.25;;;;;2.85;78.53;100891.50;5056715;28;46300;-79
2023/01/20 05:01:35;;;;;;;;;12.25;9.75;;;;;2.79;78.43;100893.44;5074689;28;45785;-78
2023/01/20 05:04:01;;;;;;;;;14.50;12.50;;;;;2.78;78.28;100900.38;5074353;28;45562;-83
2023/01/20 05:06:26;;;;;;;;;14.50;12.75;;;;;2.64;78.62;100873.28;5074523;28;46607;-79
2023/01/20 05:08:51;;;;;;;;;1.00;0.00;;;;;2.80;78.21;100890.81;5074614;28;45586;-82
2023/01/20 05:11:17;;;;;;;;;16.75;12.50;;;;;2.79;78.44;100889.13;5074321;28;45691;-80
2023/01/20 05:13:42;;;;;;;;;15.25;12.00;;;;;2.84;78.29;100896.72;5072643;28;45538;-76
2023/01/20 05:16:09;;;;;;;;;16.50;14.50;;;;;2.65;78.28;100865.47;5074595;28;45612;-79
2023/01/20 05:18:40;;;;;;;;;22.25;15.00;;;;;2.83;78.05;100902.78;5076143;28;46934;-80
2023/01/20 05:21:07;;;;;;;;;16.00;13.00;;;;;2.64;77.99;100863.78;5074472;28;45561;-78
2023/01/20 05:23:33;;;;;;;;;22.50;19.00;;;;;2.95;78.05;100912.72;5055479;28;45926;-78
2023/01/20 05:25:58;;;;;;;;;15.75;15.50;;;;;3.00;77.97;100921.16;5073836;28;46438;-77
2023/01/20 05:31:46;;;;;;;;;16.25;16.00;;;;;2.96;77.55;100927.34;5072990;28;45957;-79
2023/01/20 05:34:11;;;;;;;;;24.75;20.25;;;;;2.93;77.79;100922.25;5073911;28;45660;-77
2023/01/20 05:36:37;;;;;;;;;19.25;15.75;;;;;2.89;77.54;100926.72;5068994;28;48583;-81
2023/01/20 05:39:02;;;;;;;;;24.50;17.25;;;;;2.87;77.74;100930.25;5053633;28;45607;-79
2023/01/20 05:41:28;;;;;;;;;22.25;16.00;;;;;2.71;77.65;100916.97;5052401;28;45624;-79
2023/01/20 05:47:15;;;;;;;;;24.50;21.50;;;;;2.73;77.85;100935.03;5056902;28;45951;-78
2023/01/20 05:49:40;;;;;;;;;24.00;21.50;;;;;2.47;77.63;100903.16;5058510;28;47016;-80
2023/01/20 05:52:05;;;;;;;;;31.75;23.25;;;;;2.67;77.93;100945.59;5065137;28;45616;-81
2023/01/20 05:54:31;;;;;;;;;33.75;24.75;;;;;2.67;77.88;100950.75;5062913;28;45650;-79
2023/01/20 05:56:57;;;;;;;;;67.33;52.67;;;;;2.66;77.82;100954.25;5057258;27;46742;-76
2023/01/20 05:59:23;;;;;;;;;29.25;24.25;;;;;2.56;77.95;100934.75;5058728;28;45613;-78
2023/01/20 06:01:48;;;;;;;;;22.25;18.00;;;;;2.66;78.01;100956.81;5057594;28;45432;-76
2023/01/20 06:04:13;;;;;;;;;26.00;17.75;;;;;2.63;78.41;100952.63;5056336;28;45800;-76
2023/01/20 06:06:39;;;;;;;;;22.00;18.00;;;;;2.63;78.07;100960.38;5057639;28;45648;-83
2023/01/20 06:09:05;;;;;;;;;20.75;15.75;;;;;2.57;77.77;100952.81;5056836;28;46550;-81
2023/01/20 06:11:31;;;;;;;;;24.75;17.50;;;;;2.58;77.90;100949.34;5057059;28;45596;-79
2023/01/20 06:17:18;;;;;;;;;21.25;17.50;;;;;2.68;78.12;100967.97;5056634;28;46057;-78
2023/01/20 06:19:43;;;;;;;;;18.25;15.50;;;;;2.67;77.68;100963.69;5056534;28;45649;-81
2023/01/20 06:22:13;;;;;;;;;23.00;17.50;;;;;2.63;77.99;100964.69;5056402;28;45745;-79
2023/01/20 06:24:39;;;;;;;;;21.50;19.00;;;;;2.67;77.76;100963.69;5056457;28;45923;-75
2023/01/20 06:27:04;;;;;;;;;20.25;16.50;;;;;2.64;77.57;100954.31;5056899;28;46329;-76
2023/01/20 06:32:53;;;;;;;;;22.50;18.50;;;;;2.57;77.65;100949.38;5055922;28;45716;-80
2023/01/20 06:35:19;;;;;;;;;26.75;20.50;;;;;2.64;77.72;100953.47;5060267;28;45625;-84
2023/01/20 06:37:44;;;;;;;;;9.50;7.00;;;;;2.64;77.76;100958.63;5079273;28;46484;-77
2023/01/20 06:40:10;;;;;;;;;19.00;15.25;;;;;2.66;77.57;100954.25;5080380;28;45897;-83
2023/01/20 06:42:35;;;;;;;;;22.50;17.50;;;;;2.69;77.73;100959.31;5078477;28;45561;-80
2023/01/20 06:45:01;;;;;;;;;17.50;16.25;;;;;2.53;77.85;100933.13;5077264;28;45585;-81
2023/01/20 06:47:26;;;;;;;;;20.50;17.00;;;;;2.73;77.56;100955.72;5077714;28;46300;-79
2023/01/20 06:49:51;;;;;;;;;14.25;8.75;;;;;2.62;77.39;100940.56;5076356;28;46940;-82
2023/01/20 06:52:17;;;;;;;;;23.25;16.00;;;;;2.75;77.45;100967.75;5076537;28;45620;-82
2023/01/20 06:54:42;;;;;;;;;19.00;17.00;;;;;2.77;77.71;100968.50;5075332;28;45859;-77
2023/01/20 06:57:07;;;;;;;;;21.75;16.50;;;;;2.78;77.74;100972.78;5075894;28;46391;-80
2023/01/20 07:02:54;;;;;;;;;14.25;13.00;;;;;2.88;77.20;100988.84;5075723;28;45644;-78
2023/01/20 07:05:20;;;;;;;;;25.50;18.50;;;;;2.91;77.48;100988.75;5077571;28;45520;-77
2023/01/20 07:07:45;;;;;;;;;21.00;19.50;;;;;2.91;77.33;100978.41;5077694;28;46355;-78
2023/01/20 07:10:11;;;;;;;;;18.25;14.00;;;;;2.98;77.29;100992.81;5075899;28;45619;-79
2023/01/20 07:12:36;;;;;;;;;20.75;16.75;;;;;2.91;77.01;100971.50;5075959;28;45491;-79
2023/01/20 07:18:23;;;;;;;;;19.50;15.75;;;;;3.00;76.83;101008.31;5075431;28;46154;-77
2023/01/20 07:20:53;;;;;;;;;20.75;19.00;;;;;2.83;76.62;100980.41;5075626;28;46704;-79
2023/01/20 07:23:19;;;;;;;;;22.75;13.50;;;;;3.09;76.84;101010.56;5076076;28;46024;-78
2023/01/20 07:25:44;;;;;;;;;22.75;19.00;;;;;3.12;76.85;101019.09;5075507;28;45743;-77
2023/01/20 07:28:10;;;;;;;;;20.25;17.75;;;;;3.16;76.80;101022.41;5075953;28;45614;-75
2023/01/20 07:30:35;;;;;;;;;25.75;17.75;;;;;3.13;76.74;101018.16;5075226;28;45742;-75
2023/01/20 07:33:00;;;;;;;;;22.50;18.00;;;;;3.23;76.68;101026.50;5074271;28;45624;-74
2023/01/20 07:35:26;;;;;;;;;23.75;18.00;;;;;3.28;76.58;101034.94;5056481;28;45924;-75
2023/01/20 07:37:51;;;;;;;;;13.75;11.00;;;;;3.32;76.61;101037.38;5074582;28;46814;-73
2023/01/20 07:40:16;;;;;;;;;22.00;17.25;;;;;3.35;76.27;101047.63;5074525;28;46440;-74
2023/01/20 07:42:42;;;;;;;;;23.25;19.50;;;;;3.38;76.31;101047.53;5090393;27;45961;-74
2023/01/20 07:48:32;;;;;;;;;17.50;14.75;;;;;3.38;75.60;101034.59;5074573;28;46193;-75
2023/01/20 07:51:03;;;;;;;;;20.25;16.75;;;;;3.36;75.49;101038.94;5075248;28;46520;-76
2023/01/20 07:53:30;;;;;;;;;23.25;17.50;;;;;3.27;75.62;101022.91;5075011;28;45590;-76
2023/01/20 07:55:58;;;;;;;;;19.25;17.50;;;;;3.41;75.63;101056.06;5075121;28;45899;-74
2023/01/20 07:58:24;;;;;;;;;17.00;14.25;;;;;3.42;75.45;101048.25;5074203;28;45541;-75
2023/01/20 08:04:12;;;;;;;;;20.00;16.00;;;;;3.39;75.37;101035.44;5074526;28;45584;-75
2023/01/20 08:06:37;;;;;;;;;15.25;15.00;;;;;3.54;75.01;101052.16;5074501;28;45633;-74
2023/01/20 08:09:03;;;;;;;;;20.75;17.50;;;;;3.54;74.82;101054.75;5073302;28;46375;-74
2023/01/20 08:11:30;;;;;;;;;26.25;19.00;;;;;3.51;74.57;101050.50;5068911;28;47051;-74
2023/01/20 08:13:56;;;;;;;;;10.75;8.00;;;;;3.51;74.84;101052.28;5073674;28;45596;-74
2023/01/20 08:16:21;;;;;;;;;17.25;15.00;;;;;3.45;74.92;101047.31;5074550;28;45535;-75
2023/01/20 08:18:47;;;;;;;;;18.50;16.00;;;;;3.55;74.59;101062.47;5074077;28;47383;-75
2023/01/20 08:21:27;;;;;;;;;19.00;17.00;;;;;3.55;74.35;101067.66;5074300;28;46433;-74
2023/01/20 08:23:57;;;;;;;;;19.00;16.50;;;;;3.53;74.59;101071.19;5074418;28;45601;-73
2023/01/20 08:26:24;;;;;;;;;19.00;17.25;;;;;3.55;74.60;101061.63;5075498;28;45554;-76
2023/01/20 08:28:50;;;;;;;;;19.25;16.25;;;;;3.53;74.60;101056.50;5074297;28;46778;-75
2023/01/20 08:34:37;;;;;;;;;18.50;18.00;;;;;3.65;74.16;101081.13;5074254;28;45527;-77
2023/01/20 08:37:02;;;;;;;;;14.50;13.50;;;;;3.65;74.17;101073.38;5076464;28;45882;-75
2023/01/20 08:39:28;;;;;;;;;20.75;16.75;;;;;3.70;74.18;101082.66;5075931;28;45788;-74
2023/01/20 08:41:53;;;;;;;;;22.00;18.50;;;;;3.72;74.13;101080.03;5074302;28;45605;-74
2023/01/20 08:44:19;;;;;;;;;15.50;12.50;;;;;3.73;73.87;101086.88;5073541;28;46055;-75
2023/01/20 08:46:45;;;;;;;;;18.75;16.25;;;;;3.73;73.71;101087.72;5073966;28;45694;-75
2023/01/20 08:49:15;;;;;;;;;20.25;15.00;;;;;3.70;73.86;101087.84;5073486;28;46582;-77
2023/01/20 08:51:43;;;;;;;;;22.75;18.50;;;;;3.68;73.58;101083.59;5055684;28;45841;-76
2023/01/20 08:54:08;;;;;;;;;21.50;17.00;;;;;3.59;73.88;101063.22;5073952;28;45920;-75
2023/01/20 08:56:35;;;;;;;;;7.75;6.50;;;;;3.71;74.05;101078.34;5073659;28;45729;-73
2023/01/20 08:59:01;;;;;;;;;16.00;14.00;;;;;3.74;73.86;101088.56;5073114;28;46496;-76
2023/01/20 09:04:49;;;;;;;;;14.25;13.50;;;;;3.71;74.41;101088.69;5071599;28;45920;-76
2023/01/20 09:07:16;;;;;;;;;13.50;8.25;;;;;3.77;74.27;101098.84;5070897;28;45575;-76
2023/01/20 09:09:42;;;;;;;;;14.25;12.75;;;;;3.76;74.45;101105.78;5073504;28;46609;-76
2023/01/20 09:12:08;;;;;;;;;15.25;13.00;;;;;3.82;74.62;101106.44;5073971;28;45671;-74
2023/01/20 09:14:33;;;;;;;;;5.50;4.00;;;;;3.83;74.65;101115.94;5074028;28;45575;-74
2023/01/20 09:20:20;;;;;;;;;10.25;8.50;;;;;3.76;74.72;101112.69;5076899;28;45601;-73
2023/01/20 09:22:45;;;;;;;;;13.00;10.75;;;;;3.77;74.39;101117.84;5077624;28;46261;-74
2023/01/20 09:25:11;;;;;;;;;15.75;13.00;;;;;3.80;74.40;101116.88;5077228;28;45584;-74
2023/01/20 09:27:37;;;;;;;;;8.25;7.75;;;;;3.82;74.47;101133.22;5077733;28;45661;-73
2023/01/20 09:30:03;;;;;;;;;17.50;16.00;;;;;3.84;74.35;101117.59;5077348;28;45588;-72
2023/01/20 09:32:29;;;;;;;;;17.50;13.75;;;;;3.85;74.19;101121.88;5058632;28;47775;-73
2023/01/20 09:34:55;;;;;;;;;13.75;12.50;;;;;3.90;74.28;101127.75;5076840;28;45573;-73
2023/01/20 09:47:18;;;;;;;;;11.00;8.00;;;;;4.11;74.30;101126.97;5034577;28;46012;-74
2023/01/20 09:53:14;;;;;;;;;14.25;13.00;;;;;4.23;74.26;101126.53;5034399;28;45579;-73
2023/01/20 09:56:03;;;;;;;;;13.25;12.00;;;;;4.29;74.13;101138.44;5017484;28;46914;-73
2023/01/20 09:58:46;;;;;;;;;10.25;10.25;;;;;4.33;74.70;101140.00;5035013;28;45903;-74
2023/01/20 10:04:41;;;;;;;;;10.50;9.50;;;;;4.44;74.60;101145.66;5034414;28;45688;-73
2023/01/20 10:07:27;;;;;;;;;10.50;8.00;;;;;4.53;74.50;101151.38;5034551;28;46905;-72
2023/01/20 10:10:17;;;;;;;;;10.75;10.00;;;;;4.58;74.67;101141.66;5033924;28;45994;-74
2023/01/20 10:13:14;;;;;;;;;8.75;8.00;;;;;4.65;74.58;101147.44;5017279;28;45704;-74
2023/01/20 10:15:46;;;;;;;;;10.25;8.00;;;;;4.69;74.28;101143.00;4954592;28;46492;-76
2023/01/20 10:18:16;;;;;;;;;12.25;10.25;;;;;4.67;74.23;101135.25;4954575;28;47056;-74
2023/01/20 10:20:48;;;;;;;;;8.00;5.00;;;;;4.77;74.61;101138.34;4970128;28;45915;-74
2023/01/20 10:23:23;;;;;;;;;12.25;8.00;;;;;4.76;74.43;101150.47;4974610;28;45714;-74
2023/01/20 10:26:07;;;;;;;;;9.00;9.00;;;;;4.79;74.58;101149.53;4974249;28;46305;-73
2023/01/20 10:28:40;;;;;;;;;10.50;8.00;;;;;4.72;74.12;101141.13;4974046;28;46445;-74
2023/01/20 10:31:06;;;;;;;;;7.00;7.00;;;;;4.78;74.48;101148.66;4974075;28;45665;-73
2023/01/20 10:33:37;;;;;;;;;4.00;4.00;;;;;4.78;74.41;101160.81;4975188;28;45630;-73
2023/01/20 10:36:03;;;;;;;;;6.00;5.00;;;;;4.77;73.94;101146.13;4973378;28;47812;-73
2023/01/20 10:38:44;;;;;;;;;4.50;4.00;;;;;4.82;73.96;101164.97;4974098;28;46672;-73
2023/01/20 10:41:19;;;;;;;;;9.00;6.00;;;;;4.81;73.78;101153.72;4974235;28;45793;-73
2023/01/20 10:43:45;;;;;;;;;5.50;5.50;;;;;4.83;73.59;101158.88;4974317;28;45727;-75
2023/01/20 10:46:23;;;;;;;;;9.00;6.50;;;;;4.83;73.30;101161.47;4973816;28;45766;-76
2023/01/20 10:49:24;;;;;;;;;5.00;5.00;;;;;4.85;73.50;101154.47;4974122;28;46058;-76
2023/01/20 10:51:58;;;;;;;;;11.00;8.00;;;;;4.87;72.69;101153.50;4995686;28;45630;-76
2023/01/20 10:54:53;;;;;;;;;10.75;7.25;;;;;4.90;73.17;101155.16;5076023;28;45660;-76
2023/01/20 10:57:19;;;;;;;;;10.75;8.00;;;;;4.92;72.91;101148.97;5075189;28;46513;-76
2023/01/20 10:59:49;;;;;;;;;7.00;7.00;;;;;4.92;72.52;101151.56;5075130;28;46236;-77
2023/01/20 11:02:19;;;;;;;;;8.25;7.75;;;;;4.94;72.92;101144.56;5075646;28;45904;-74
2023/01/20 11:04:51;;;;;;;;;5.00;5.00;;;;;4.84;72.48;101132.00;5075776;28;45658;-77
2023/01/20 11:07:18;;;;;;;;;5.00;4.00;;;;;4.99;72.14;101150.44;5075307;28;46674;-75
2023/01/20 11:09:46;;;;;;;;;8.00;5.50;;;;;4.99;72.22;101153.03;5074388;28;48218;-74
2023/01/20 11:12:16;;;;;;;;;7.00;5.50;;;;;5.01;71.84;101143.44;5057199;28;45636;-77
2023/01/20 11:14:43;;;;;;;;;10.75;8.00;;;;;4.97;72.35;101148.78;5075831;28;45623;-74
2023/01/20 11:17:17;;;;;;;;;4.00;4.00;;;;;5.00;71.80;101146.94;5075598;28;45573;-75
2023/01/20 11:19:52;;;;;;;;;6.00;6.00;;;;;5.03;71.84;101146.78;5075308;28;47236;-76
2023/01/20 11:22:35;;;;;;;;;7.50;7.50;;;;;5.08;72.21;101157.00;5075490;28;45769;-75
2023/01/20 11:25:02;;;;;;;;;3.00;3.00;;;;;5.08;71.48;101152.66;5075503;28;45886;-75
2023/01/20 11:27:41;;;;;;;;;10.50;7.50;;;;;5.12;71.82;101150.81;5074890;28;47551;-75
2023/01/20 11:30:24;;;;;;;;;7.50;7.00;;;;;5.15;70.96;101152.41;5075148;28;47026;-76
2023/01/20 11:33:20;;;;;;;;;7.25;7.00;;;;;5.15;71.61;101152.41;5075131;28;45697;-75
2023/01/20 11:36:06;;;;;;;;;4.25;2.00;;;;;5.12;71.36;101160.34;5075612;28;45542;-75
2023/01/20 11:38:44;;;;;;;;;8.25;5.50;;;;;5.12;70.86;101152.53;5074986;28;47918;-75
2023/01/20 11:41:27;;;;;;;;;9.50;7.00;;;;;5.21;71.31;101149.56;5073738;28;47231;-73
2023/01/20 11:43:58;;;;;;;;;6.00;5.50;;;;;5.32;70.97;101150.00;5074792;28;45919;-74
2023/01/20 11:46:31;;;;;;;;;10.75;7.25;;;;;5.39;70.65;101146.25;5075200;28;45546;-75
2023/01/20 11:49:19;;;;;;;;;7.00;5.00;;;;;5.45;70.92;101148.59;5074537;28;46464;-75
2023/01/20 11:51:53;;;;;;;;;5.75;5.75;;;;;5.49;70.60;101144.94;5074475;28;46940;-75
2023/01/20 11:54:24;;;;;;;;;5.25;4.50;;;;;5.56;70.19;101151.56;5074426;28;45673;-75
2023/01/20 11:56:58;;;;;;;;;8.75;4.00;;;;;5.54;70.08;101136.97;5074725;28;45928;-73
2023/01/20 11:59:28;;;;;;;;;7.25;5.00;;;;;5.64;70.32;101143.47;5075444;28;46764;-74
2023/01/20 12:05:26;;;;;;;;;7.75;5.50;;;;;5.78;69.64;101148.91;5076902;28;45890;-75
2023/01/20 12:07:54;;;;;;;;;4.00;3.50;;;;;5.81;69.46;101154.84;5076784;28;45415;-76
2023/01/20 12:10:25;;;;;;;;;1.25;1.25;;;;;5.81;69.25;101146.19;5057957;28;46665;-76
2023/01/20 12:13:00;;;;;;;;;6.25;5.50;;;;;5.79;69.00;101146.25;5076089;28;45452;-75
2023/01/20 12:15:42;;;;;;;;;4.25;3.75;;;;;5.83;68.87;101132.19;5057394;28;45953;-75
2023/01/20 12:21:42;;;;;;;;;4.00;2.00;;;;;5.88;69.40;101139.84;5073814;28;45615;-75
2023/01/20 12:25:06;;;;;;;;;9.00;5.75;;;;;5.88;69.37;101140.69;5056012;28;46207;-73
2023/01/20 12:27:22;;;;;;;;;4.50;4.00;;;;;5.90;69.01;101138.88;5073765;28;46006;-75
2023/01/20 12:29:52;;;;;;;;;4.00;4.00;;;;;5.91;69.48;101147.50;5074121;28;45571;-74
2023/01/20 12:32:20;;;;;;;;;5.00;5.00;;;;;5.97;69.15;101141.22;5074046;28;46055;-75
2023/01/20 12:34:46;;;;;;;;;6.25;4.00;;;;;5.96;69.43;101150.75;5074126;28;47141;-73
2023/01/20 12:37:30;;;;;;;;;4.00;4.00;;;;;5.92;69.44;101143.16;5073946;28;45924;-74
2023/01/20 12:40:14;;;;;;;;;4.50;4.00;;;;;5.89;68.72;101141.53;5074532;28;45542;-75
2023/01/20 12:43:02;;;;;;;;;4.25;3.00;;;;;5.88;69.51;101142.47;5074206;28;45739;-75
2023/01/20 12:45:37;;;;;;;;;4.00;4.00;;;;;5.88;69.44;101143.28;5073478;28;46073;-75
2023/01/20 12:48:36;;;;;;;;;1.75;1.75;;;;;5.92;69.51;101143.16;5074063;28;45553;-74
2023/01/20 12:51:20;;;;;;;;;4.50;4.00;;;;;5.92;69.25;101138.81;5072885;28;45546;-76
2023/01/20 12:54:01;;;;;;;;;4.50;4.50;;;;;5.94;69.55;101136.16;5071506;28;47512;-74
2023/01/20 12:56:47;;;;;;;;;7.25;5.50;;;;;5.99;69.48;101132.44;5072113;28;46637;-77
2023/01/20 12:59:24;;;;;;;;;6.25;5.50;;;;;6.03;69.56;101138.34;5071701;28;45797;-74
2023/01/20 13:06:07;;;;;;;;;3.50;3.50;;;;;6.12;69.88;101135.31;5073623;28;46162;-75
2023/01/20 13:08:51;;;;;;;;;4.00;3.50;;;;;6.05;69.57;101132.16;5031771;28;45539;-76
2023/01/20 13:11:44;;;;;;;;;5.25;2.50;;;;;6.15;69.41;101154.25;5027305;28;45562;-77
2023/01/20 13:14:20;;;;;;;;;4.75;2.50;;;;;6.18;69.48;101138.50;5030885;28;45818;-78
2023/01/20 13:16:55;;;;;;;;;2.50;2.00;;;;;6.21;69.38;101132.31;5030683;28;45824;-76